createdAt,value
2023-01-25T00:01:07.567Z,3.70
2023-01-25T00:03:34.535Z,3.60
2023-01-25T00:06:01.841Z,3.60
2023-01-25T00:08:31.351Z,3.50
2023-01-25T00:10:58.699Z,3.50
2023-01-25T00:13:25.788Z,3.50
2023-01-25T00:16:01.934Z,3.50
2023-01-25T00:18:28.863Z,3.50
2023-01-25T00:20:55.948Z,3.50
2023-01-25T00:23:25.405Z,3.60
2023-01-25T00:25:59.036Z,3.60
2023-01-25T00:28:26.045Z,3.60
2023-01-25T00:31:03.416Z,3.60
2023-01-25T00:33:55.995Z,3.60
2023-01-25T00:36:39.855Z,3.60
2023-01-25T00:39:10.995Z,3.60
2023-01-25T00:41:39.312Z,3.60
2023-01-25T00:44:06.503Z,3.70
2023-01-25T00:46:33.383Z,3.60
2023-01-25T00:49:08.683Z,3.60
2023-01-25T00:51:35.795Z,3.60
2023-01-25T00:54:02.857Z,3.60
2023-01-25T00:56:32.114Z,3.60
2023-01-25T00:58:59.226Z,3.60
2023-01-25T01:01:26.295Z,3.60
2023-01-25T01:03:53.466Z,3.60
2023-01-25T01:06:22.975Z,3.70
2023-01-25T01:08:49.994Z,3.60
2023-01-25T01:11:16.900Z,3.60
2023-01-25T01:13:43.833Z,3.60
2023-01-25T01:16:12.351Z,3.60
2023-01-25T01:18:44.726Z,3.60
2023-01-25T01:21:13.423Z,3.60
2023-01-25T01:23:40.991Z,3.60
2023-01-25T01:26:11.784Z,3.60
2023-01-25T01:28:39.616Z,3.60
2023-01-25T01:31:20.931Z,3.60
2023-01-25T01:34:15.088Z,3.60
2023-01-25T01:36:43.227Z,3.60
2023-01-25T01:39:12.975Z,3.60
2023-01-25T01:41:40.184Z,3.60
2023-01-25T01:44:43.786Z,3.60
2023-01-25T01:47:22.970Z,3.60
2023-01-25T01:49:57.980Z,3.70
2023-01-25T01:52:31.338Z,3.70
2023-01-25T01:55:08.363Z,3.60
2023-01-25T01:57:40.299Z,3.60
2023-01-25T02:00:13.560Z,3.60
2023-01-25T02:02:42.133Z,3.60
2023-01-25T02:05:22.357Z,3.60
2023-01-25T02:07:54.569Z,3.60
2023-01-25T02:10:24.516Z,3.60
2023-01-25T02:12:56.005Z,3.60
2023-01-25T02:15:23.632Z,3.60
2023-01-25T02:17:53.831Z,3.70
2023-01-25T02:20:36.767Z,3.70
2023-01-25T02:23:11.205Z,3.60
2023-01-25T02:25:38.689Z,3.60
2023-01-25T02:28:21.763Z,3.60
2023-01-25T02:30:51.841Z,3.60
2023-01-25T02:33:19.184Z,3.60
2023-01-25T02:35:51.436Z,3.70
2023-01-25T02:38:22.472Z,3.60
2023-01-25T02:41:02.477Z,3.60
2023-01-25T02:43:34.354Z,3.60
2023-01-25T02:46:21.145Z,3.60
2023-01-25T02:48:53.881Z,3.70
2023-01-25T02:51:22.752Z,3.70
2023-01-25T02:53:49.940Z,3.70
2023-01-25T02:56:17.808Z,3.60
2023-01-25T02:58:47.343Z,3.60
2023-01-25T03:01:15.897Z,3.70
2023-01-25T03:03:43.043Z,3.70
2023-01-25T03:06:10.419Z,3.60
2023-01-25T03:08:42.170Z,3.60
2023-01-25T03:11:11.861Z,3.60
2023-01-25T03:13:41.149Z,3.70
2023-01-25T03:16:13.635Z,3.70
2023-01-25T03:18:48.084Z,3.70
2023-01-25T03:21:22.629Z,3.70
2023-01-25T03:24:00.483Z,3.70
2023-01-25T03:26:54.259Z,3.60
2023-01-25T03:29:27.104Z,3.60
2023-01-25T03:31:54.177Z,3.70
2023-01-25T03:34:21.185Z,3.70
2023-01-25T03:36:48.361Z,3.70
2023-01-25T03:39:18.339Z,3.70
2023-01-25T03:41:47.869Z,3.70
2023-01-25T03:44:15.554Z,3.70
2023-01-25T03:46:44.775Z,3.60
2023-01-25T03:49:13.889Z,3.70
2023-01-25T03:51:41.500Z,3.70
2023-01-25T03:54:10.286Z,3.70
2023-01-25T03:56:38.365Z,3.70
2023-01-25T03:59:17.752Z,3.70
2023-01-25T04:01:45.396Z,3.80
2023-01-25T04:04:12.608Z,3.70
2023-01-25T04:06:41.917Z,3.70
2023-01-25T04:09:09.184Z,3.60
2023-01-25T04:11:40.800Z,3.70
2023-01-25T04:14:07.824Z,3.70
2023-01-25T04:16:54.452Z,3.70
2023-01-25T04:19:41.765Z,3.70
2023-01-25T04:22:13.953Z,3.70
2023-01-25T04:24:41.574Z,3.70
2023-01-25T04:27:09.286Z,3.50
2023-01-25T04:29:44.430Z,3.60
2023-01-25T04:32:16.823Z,3.60
2023-01-25T04:34:43.921Z,3.60
2023-01-25T04:37:15.381Z,3.60
2023-01-25T04:39:51.210Z,3.50
2023-01-25T04:42:18.094Z,3.50
2023-01-25T04:44:48.703Z,3.60
2023-01-25T04:47:18.680Z,3.60
2023-01-25T04:49:45.607Z,3.60
2023-01-25T04:52:14.700Z,3.60
2023-01-25T04:54:44.255Z,3.60
2023-01-25T04:57:13.483Z,3.60
2023-01-25T04:59:44.811Z,3.60
2023-01-25T05:02:11.841Z,3.60
2023-01-25T05:04:39.427Z,3.60
2023-01-25T05:07:06.429Z,3.70
2023-01-25T05:09:37.925Z,3.60
2023-01-25T05:12:11.566Z,3.60
2023-01-25T05:14:50.981Z,3.50
2023-01-25T05:17:17.991Z,3.50
2023-01-25T05:19:45.262Z,3.50
2023-01-25T05:22:17.302Z,3.50
2023-01-25T05:24:48.911Z,3.60
2023-01-25T05:27:19.551Z,3.60
2023-01-25T05:29:56.808Z,3.70
2023-01-25T05:32:39.399Z,3.60
2023-01-25T05:35:07.345Z,3.60
2023-01-25T05:37:34.568Z,3.60
2023-01-25T05:40:08.311Z,3.50
2023-01-25T05:42:38.392Z,3.60
2023-01-25T05:45:11.044Z,3.60
2023-01-25T05:47:39.886Z,3.60
2023-01-25T05:50:09.726Z,3.60
2023-01-25T05:52:52.971Z,3.70
2023-01-25T05:55:22.172Z,3.60
2023-01-25T05:57:56.571Z,3.60
2023-01-25T06:00:25.950Z,3.50
2023-01-25T06:02:53.194Z,3.60
2023-01-25T06:05:23.895Z,3.60
2023-01-25T06:07:51.363Z,3.70
2023-01-25T06:10:22.311Z,3.70
2023-01-25T06:12:57.541Z,3.60
2023-01-25T06:15:24.721Z,3.50
2023-01-25T06:17:59.245Z,3.50
2023-01-25T06:20:34.635Z,3.60
2023-01-25T06:23:07.700Z,3.60
2023-01-25T06:25:34.592Z,3.70
2023-01-25T06:28:03.902Z,3.60
2023-01-25T06:30:30.864Z,3.70
2023-01-25T06:33:01.065Z,3.60
2023-01-25T06:35:28.930Z,3.60
2023-01-25T06:37:57.249Z,3.60
2023-01-25T06:40:27.507Z,3.50
2023-01-25T06:42:54.911Z,3.50
2023-01-25T06:45:21.812Z,3.60
2023-01-25T06:47:49.383Z,3.60
2023-01-25T06:50:18.619Z,3.60
2023-01-25T06:52:54.866Z,3.60
2023-01-25T06:55:22.839Z,3.50
2023-01-25T06:57:49.966Z,3.50
2023-01-25T07:00:19.708Z,3.40
2023-01-25T07:02:46.698Z,3.50
2023-01-25T07:05:13.520Z,3.60
2023-01-25T07:07:40.481Z,3.60
2023-01-25T07:10:08.093Z,3.60
2023-01-25T07:12:35.029Z,3.60
2023-01-25T07:15:04.488Z,3.70
2023-01-25T07:17:33.781Z,3.70
2023-01-25T07:20:03.160Z,3.70
2023-01-25T07:22:30.123Z,3.70
2023-01-25T07:24:59.208Z,3.80
2023-01-25T07:27:26.123Z,3.80
2023-01-25T07:29:53.075Z,3.80
2023-01-25T07:32:19.923Z,3.80
2023-01-25T07:34:46.843Z,3.80
2023-01-25T07:37:13.700Z,3.80
2023-01-25T07:39:49.688Z,3.90
2023-01-25T07:42:19.272Z,3.90
2023-01-25T07:45:09.644Z,3.80
2023-01-25T07:47:38.757Z,3.80
2023-01-25T07:50:06.148Z,3.70
2023-01-25T07:52:37.827Z,3.80
2023-01-25T07:55:05.873Z,3.80
2023-01-25T07:57:32.722Z,3.90
2023-01-25T08:00:02.182Z,3.90
2023-01-25T08:02:39.458Z,3.90
2023-01-25T08:05:07.014Z,4.00
2023-01-25T08:07:34.294Z,3.90
2023-01-25T08:10:01.298Z,3.90
2023-01-25T08:12:28.807Z,3.70
2023-01-25T08:14:55.822Z,3.70
2023-01-25T08:17:24.982Z,3.80
2023-01-25T08:19:51.907Z,3.80
2023-01-25T08:22:18.737Z,3.80
2023-01-25T08:24:45.664Z,3.70
2023-01-25T08:27:14.996Z,3.80
2023-01-25T08:29:44.642Z,3.90
2023-01-25T08:32:11.741Z,4.00
2023-01-25T08:34:41.469Z,4.10
2023-01-25T08:37:08.401Z,4.10
2023-01-25T08:39:35.269Z,4.10
2023-01-25T08:42:04.717Z,4.10
2023-01-25T08:44:31.664Z,4.10
2023-01-25T08:47:00.671Z,4.10
2023-01-25T08:49:31.122Z,4.10
2023-01-25T08:52:00.579Z,4.10
2023-01-25T08:54:30.061Z,4.10
2023-01-25T08:57:00.803Z,4.20
2023-01-25T08:59:29.850Z,4.30
2023-01-25T09:02:01.481Z,4.20
2023-01-25T09:04:29.187Z,4.30
2023-01-25T09:06:56.079Z,4.40
2023-01-25T09:09:25.206Z,4.40
2023-01-25T09:11:52.156Z,4.30
2023-01-25T09:14:19.373Z,4.30
2023-01-25T09:16:46.701Z,4.40
2023-01-25T09:19:13.942Z,4.30
2023-01-25T09:21:43.401Z,4.10
2023-01-25T09:24:12.546Z,4.00
2023-01-25T09:26:45.928Z,4.10
2023-01-25T09:29:14.849Z,4.20
2023-01-25T09:31:44.381Z,4.40
2023-01-25T09:34:12.319Z,4.20
2023-01-25T09:36:39.321Z,4.20
2023-01-25T09:39:06.525Z,4.20
2023-01-25T09:41:54.769Z,4.30
2023-01-25T09:44:32.419Z,4.30
2023-01-25T09:47:04.822Z,4.20
2023-01-25T09:49:41.071Z,4.30
2023-01-25T09:52:16.579Z,4.40
2023-01-25T09:54:47.363Z,4.40
2023-01-25T09:57:37.828Z,4.40
2023-01-25T10:00:19.131Z,4.30
2023-01-25T10:03:10.675Z,4.30
2023-01-25T10:05:44.663Z,4.30
2023-01-25T10:08:36.259Z,4.40
2023-01-25T10:11:45.462Z,4.30
2023-01-25T10:14:18.401Z,4.30
2023-01-25T10:16:48.462Z,4.30
2023-01-25T10:19:28.517Z,4.20
2023-01-25T10:22:01.402Z,4.20
2023-01-25T10:25:04.705Z,4.30
2023-01-25T10:27:54.073Z,4.30
2023-01-25T10:30:31.341Z,4.20
2023-01-25T10:33:00.286Z,4.30
2023-01-25T10:35:38.901Z,4.10
2023-01-25T10:38:19.636Z,4.20
2023-01-25T10:41:09.271Z,4.30
2023-01-25T10:43:38.971Z,4.30
2023-01-25T10:46:25.035Z,4.20
2023-01-25T10:48:52.304Z,4.20
2023-01-25T10:51:35.291Z,4.10
2023-01-25T10:54:06.132Z,3.90
2023-01-25T10:56:39.354Z,3.90
2023-01-25T10:59:20.573Z,3.90
2023-01-25T11:01:47.782Z,4.00
2023-01-25T11:04:35.762Z,4.00
2023-01-25T11:07:06.209Z,4.20
2023-01-25T11:09:39.208Z,4.30
2023-01-25T11:12:21.740Z,4.20
2023-01-25T11:14:51.986Z,4.30
2023-01-25T11:17:31.511Z,4.30
2023-01-25T11:20:10.921Z,4.30
2023-01-25T11:22:48.782Z,4.30
2023-01-25T11:25:31.571Z,4.30
2023-01-25T11:28:18.540Z,4.00
2023-01-25T11:30:46.030Z,4.00
2023-01-25T11:33:18.420Z,4.10
2023-01-25T11:35:59.743Z,4.10
2023-01-25T11:38:29.293Z,4.20
2023-01-25T11:41:21.770Z,4.30
2023-01-25T11:44:07.788Z,4.20
2023-01-25T11:46:45.831Z,4.20
2023-01-25T11:49:18.658Z,4.10
2023-01-25T11:52:09.438Z,4.00
2023-01-25T11:54:41.783Z,3.90
2023-01-25T11:57:33.469Z,3.90
2023-01-25T12:00:21.292Z,4.00
2023-01-25T12:02:50.944Z,4.10
2023-01-25T12:06:01.606Z,4.10
2023-01-25T12:08:41.653Z,4.10
2023-01-25T12:11:29.637Z,3.90
2023-01-25T12:14:27.965Z,3.90
2023-01-25T12:17:29.476Z,3.80
2023-01-25T12:20:09.212Z,3.90
2023-01-25T12:23:15.257Z,4.00
2023-01-25T12:26:19.769Z,3.90
2023-01-25T12:28:52.125Z,3.80
2023-01-25T12:31:28.616Z,3.60
2023-01-25T12:34:05.054Z,3.70
2023-01-25T12:37:11.430Z,3.70
2023-01-25T12:39:45.611Z,3.80
2023-01-25T12:42:22.664Z,3.90
2023-01-25T12:45:05.234Z,4.00
2023-01-25T12:47:49.426Z,3.90
2023-01-25T12:50:25.426Z,4.00
2023-01-25T12:53:02.564Z,4.00
2023-01-25T12:55:33.018Z,4.00
2023-01-25T12:58:23.847Z,4.00
2023-01-25T13:01:14.423Z,3.90
2023-01-25T13:03:59.831Z,3.90
2023-01-25T13:06:35.799Z,3.80
2023-01-25T13:09:10.691Z,3.80
2023-01-25T13:11:40.852Z,3.70
2023-01-25T13:14:16.691Z,3.70
2023-01-25T13:17:01.548Z,3.70
2023-01-25T13:19:34.211Z,3.70
2023-01-25T13:22:01.296Z,3.70
2023-01-25T13:25:03.832Z,3.70
2023-01-25T13:27:36.593Z,3.60
2023-01-25T13:30:34.649Z,3.80
2023-01-25T13:33:04.365Z,3.80
2023-01-25T13:35:36.735Z,3.90
2023-01-25T13:38:27.246Z,3.90
2023-01-25T13:41:12.539Z,3.90
2023-01-25T13:43:46.426Z,3.80
2023-01-25T13:46:19.302Z,3.90
2023-01-25T13:48:58.963Z,3.90
2023-01-25T13:51:29.803Z,3.90
2023-01-25T13:54:02.902Z,3.80
2023-01-25T13:56:35.658Z,3.80
2023-01-25T13:59:05.285Z,3.80
2023-01-25T14:01:35.269Z,3.90
2023-01-25T14:04:05.042Z,4.00
2023-01-25T14:06:39.546Z,4.00
2023-01-25T14:09:22.729Z,3.90
2023-01-25T14:11:58.917Z,4.00
2023-01-25T14:14:36.301Z,3.90
2023-01-25T14:17:03.795Z,3.70
2023-01-25T14:19:38.230Z,3.70
2023-01-25T14:22:19.842Z,3.70
2023-01-25T14:25:02.199Z,3.50
2023-01-25T14:27:30.276Z,3.40
2023-01-25T14:29:57.432Z,3.50
2023-01-25T14:32:26.672Z,3.50
2023-01-25T14:34:53.675Z,3.50
2023-01-25T14:37:22.365Z,3.50
2023-01-25T14:39:53.008Z,3.50
2023-01-25T14:42:22.620Z,3.50
2023-01-25T14:44:49.674Z,3.40
2023-01-25T14:47:23.980Z,3.30
2023-01-25T14:49:53.341Z,3.30
2023-01-25T14:52:27.170Z,3.40
2023-01-25T14:54:59.970Z,3.40
2023-01-25T14:57:40.732Z,3.40
2023-01-25T15:00:19.833Z,3.50
2023-01-25T15:02:57.154Z,3.40
2023-01-25T15:05:29.853Z,3.40
2023-01-25T15:08:09.103Z,3.50
2023-01-25T15:10:38.254Z,3.30
2023-01-25T15:13:20.718Z,3.30
2023-01-25T15:15:54.644Z,3.30
2023-01-25T15:18:47.463Z,3.20
2023-01-25T15:21:30.812Z,3.20
2023-01-25T15:24:10.605Z,3.10
2023-01-25T15:26:37.519Z,3.10
2023-01-25T15:29:22.491Z,3.10
2023-01-25T15:31:53.364Z,3.20
2023-01-25T15:34:25.056Z,2.90
2023-01-25T15:36:52.106Z,3.10
2023-01-25T15:39:20.183Z,2.90
2023-01-25T15:41:51.910Z,2.90
2023-01-25T15:44:21.156Z,2.90
2023-01-25T15:46:53.568Z,2.80
2023-01-25T15:49:28.844Z,2.90
2023-01-25T15:51:58.823Z,2.80
2023-01-25T15:54:26.424Z,2.80
2023-01-25T15:56:57.910Z,2.80
2023-01-25T15:59:25.350Z,2.80
2023-01-25T16:01:54.557Z,2.70
2023-01-25T16:04:32.741Z,2.90
2023-01-25T16:07:02.025Z,3.00
2023-01-25T16:09:31.058Z,3.00
2023-01-25T16:12:32.509Z,3.00
2023-01-25T16:15:00.051Z,3.10
2023-01-25T16:17:33.802Z,3.10
2023-01-25T16:20:01.004Z,3.10
2023-01-25T16:22:30.091Z,3.20
2023-01-25T16:24:59.362Z,3.20
2023-01-25T16:27:35.719Z,3.20
2023-01-25T16:30:07.886Z,3.10
2023-01-25T16:32:35.011Z,3.00
2023-01-25T16:35:01.951Z,3.00
2023-01-25T16:38:35.387Z,3.00
2023-01-25T16:41:02.686Z,3.20
2023-01-25T16:43:42.127Z,3.30
2023-01-25T16:46:21.741Z,3.30
2023-01-25T16:48:51.057Z,3.20
2023-01-25T16:51:21.106Z,3.10
2023-01-25T16:53:51.007Z,3.10
2023-01-25T16:56:20.668Z,3.10
2023-01-25T16:58:50.965Z,3.20
2023-01-25T17:01:22.016Z,3.20
2023-01-25T17:03:49.344Z,3.20
2023-01-25T17:06:25.153Z,3.20
2023-01-25T17:08:56.414Z,3.10
2023-01-25T17:11:23.915Z,3.10
2023-01-25T17:13:58.933Z,3.20
2023-01-25T17:16:27.959Z,3.20
2023-01-25T17:18:56.902Z,3.20
2023-01-25T17:21:27.786Z,3.30
2023-01-25T17:24:01.856Z,3.30
2023-01-25T17:26:33.166Z,3.20
2023-01-25T17:29:02.906Z,3.20
2023-01-25T17:31:32.720Z,3.00
2023-01-25T17:34:02.946Z,2.90
2023-01-25T17:36:30.010Z,3.00
2023-01-25T17:39:00.965Z,3.10
2023-01-25T17:41:30.373Z,3.10
2023-01-25T17:44:00.334Z,3.00
2023-01-25T17:46:32.363Z,3.00
2023-01-25T17:49:02.046Z,3.10
2023-01-25T17:51:29.413Z,3.10
2023-01-25T17:53:57.799Z,3.20
2023-01-25T17:56:27.238Z,3.20
2023-01-25T17:58:54.565Z,3.20
2023-01-25T18:01:24.745Z,3.10
2023-01-25T18:03:53.758Z,3.10
2023-01-25T18:06:26.225Z,3.10
2023-01-25T18:08:55.631Z,3.20
2023-01-25T18:11:30.897Z,3.30
2023-01-25T18:14:03.652Z,3.20
2023-01-25T18:16:50.525Z,3.10
2023-01-25T18:37:43.651Z,3.20
2023-01-25T18:40:51.410Z,3.30
2023-01-25T18:45:56.259Z,3.20
2023-01-25T18:51:11.345Z,3.20
2023-01-25T18:53:41.842Z,3.30
2023-01-25T18:56:14.425Z,3.30
2023-01-25T18:58:41.668Z,3.20
2023-01-25T19:01:12.357Z,3.20
2023-01-25T19:03:39.320Z,3.10
2023-01-25T19:06:07.015Z,3.00
2023-01-25T19:08:36.488Z,3.00
2023-01-25T19:11:12.492Z,3.10
2023-01-25T19:13:42.212Z,3.20
2023-01-25T19:16:19.967Z,3.30
2023-01-25T19:18:52.044Z,3.20
2023-01-25T19:21:26.100Z,3.30
2023-01-25T19:23:56.469Z,3.20
2023-01-25T19:26:27.624Z,2.80
2023-01-25T19:28:57.427Z,2.70
2023-01-25T19:31:26.447Z,2.70
2023-01-25T19:34:01.412Z,2.70
2023-01-25T19:36:30.397Z,2.80
2023-01-25T19:39:00.864Z,2.90
2023-01-25T19:41:30.342Z,3.10
2023-01-25T19:43:59.516Z,3.00
2023-01-25T19:46:52.323Z,2.90
2023-01-25T19:49:19.657Z,2.90
2023-01-25T19:51:53.246Z,3.10
2023-01-25T19:55:12.421Z,3.00
2023-01-25T19:57:40.851Z,3.00
2023-01-25T20:00:08.896Z,3.00
2023-01-25T20:02:39.643Z,3.00
2023-01-25T20:05:08.546Z,3.00
2023-01-25T20:07:35.855Z,3.00
2023-01-25T20:10:05.112Z,3.10
2023-01-25T20:12:32.091Z,3.10
2023-01-25T20:14:59.245Z,3.10
2023-01-25T20:19:53.818Z,2.90
2023-01-25T20:22:22.244Z,2.80
2023-01-25T20:24:51.866Z,2.80
2023-01-25T20:27:30.127Z,2.90
2023-01-25T20:29:57.789Z,3.00
2023-01-25T20:32:32.728Z,3.00
2023-01-25T20:35:04.900Z,2.90
2023-01-25T20:37:33.223Z,2.90
2023-01-25T20:40:05.268Z,2.90
2023-01-25T20:45:00.366Z,2.80
2023-01-25T20:47:29.764Z,2.80
2023-01-25T20:49:56.753Z,2.80
2023-01-25T20:52:23.654Z,2.70
2023-01-25T20:54:52.271Z,2.70
2023-01-25T20:57:19.728Z,2.70
2023-01-25T20:59:46.884Z,2.80
2023-01-25T21:02:14.064Z,2.80
2023-01-25T21:04:41.027Z,2.80
2023-01-25T21:07:08.114Z,2.80
2023-01-25T21:09:35.158Z,2.60
2023-01-25T21:12:02.585Z,2.50
2023-01-25T21:14:37.333Z,2.70
2023-01-25T21:17:04.337Z,2.80
2023-01-25T21:19:34.076Z,2.80
2023-01-25T21:22:01.133Z,2.90
2023-01-25T21:24:28.176Z,2.80
2023-01-25T21:26:57.338Z,2.70
2023-01-25T21:29:24.346Z,2.50
2023-01-25T21:31:53.245Z,2.60
2023-01-25T21:34:20.863Z,2.60
2023-01-25T21:36:48.730Z,2.50
2023-01-25T21:39:15.975Z,2.50
2023-01-25T21:41:43.343Z,2.40
2023-01-25T21:44:30.614Z,2.50
2023-01-25T21:47:27.837Z,2.60
2023-01-25T21:50:03.905Z,2.50
2023-01-25T21:52:36.258Z,2.40
2023-01-25T21:55:04.767Z,2.50
2023-01-25T21:57:32.769Z,2.60
2023-01-25T21:59:59.673Z,2.70
2023-01-25T22:02:26.762Z,2.60
2023-01-25T22:04:53.734Z,2.70
2023-01-25T22:07:23.314Z,2.70
2023-01-25T22:09:50.422Z,2.70
2023-01-25T22:12:18.676Z,2.60
2023-01-25T22:14:48.011Z,2.50
2023-01-25T22:17:15.312Z,2.50
2023-01-25T22:19:42.233Z,2.60
2023-01-25T22:24:36.652Z,2.40
2023-01-25T22:27:21.600Z,2.30
2023-01-25T22:29:48.598Z,2.40
2023-01-25T22:34:44.343Z,2.30
2023-01-25T22:37:12.245Z,2.30
2023-01-25T22:42:06.851Z,2.30
2023-01-25T22:44:33.806Z,2.10
2023-01-25T22:47:00.771Z,2.10
2023-01-25T22:49:27.725Z,2.00
2023-01-25T22:51:54.814Z,2.00
2023-01-25T22:54:22.100Z,2.10
2023-01-25T22:56:51.879Z,2.20
2023-01-25T22:59:21.239Z,2.20
2023-01-25T23:01:48.298Z,2.20
2023-01-25T23:04:15.351Z,2.30
2023-01-25T23:06:42.300Z,2.40
2023-01-25T23:09:10.817Z,2.40
2023-01-25T23:11:39.234Z,2.40
2023-01-25T23:14:26.644Z,2.30
2023-01-25T23:17:16.108Z,2.30
2023-01-25T23:19:45.282Z,2.10
2023-01-25T23:22:15.346Z,2.10
2023-01-25T23:24:43.256Z,2.20
2023-01-25T23:27:12.911Z,2.20
2023-01-25T23:29:42.221Z,2.20
2023-01-25T23:32:09.297Z,2.10
2023-01-25T23:34:37.534Z,2.10
2023-01-25T23:37:06.625Z,2.00
2023-01-25T23:39:34.148Z,2.00
2023-01-25T23:42:03.784Z,2.10
2023-01-25T23:44:31.202Z,2.10
2023-01-25T23:46:58.921Z,2.00
2023-01-25T23:49:27.147Z,1.90
2023-01-25T23:51:53.984Z,1.80
2023-01-25T23:54:21.070Z,1.90
2023-01-25T23:56:50.108Z,2.00
2023-01-25T23:59:16.963Z,2.00
